Time;durP1;ratioP1;P1;durP2;ratioP2;P2;SDS_P1;SDS_P2;PMS_P1;PMS_P2;Temp;Humidity;BMP_temperature;BMP_pressure;BME280_temperature;BME280_humidity;BME280_pressure;Samples;Min_cycle;Max_cycle;Signal;HPM_P1;HPM_P2
2021/04/19 09:02:02;;;;;;;2.55;1.60;;;;;;;22.55;33.14;101784.25;5077480;28;20716;-61
2021/04/19 09:04:27;;;;;;;4.55;2.03;;;;;;;22.82;32.50;101782.72;5050692;28;20037;-46
2021/04/19 09:06:53;;;;;;;2.70;1.90;;;;;;;23.00;32.05;101783.19;5062237;28;20090;-51
2021/04/19 09:09:30;;;;;;;3.90;2.30;;;;;;;23.15;30.17;101784.00;5050792;28;20077;-48
2021/04/19 09:11:56;;;;;;;2.67;2.38;;;;;;;23.14;29.32;101784.19;5061714;28;20040;-50
2021/04/19 09:14:33;;;;;;;7.65;3.97;;;;;;;23.21;29.34;101785.13;5051204;28;20487;-43
2021/04/19 09:17:01;;;;;;;5.22;2.67;;;;;;;23.18;28.60;101791.00;5049432;28;20044;-37
2021/04/19 09:19:28;;;;;;;6.47;2.75;;;;;;;23.19;28.87;101791.84;5056429;28;20159;-44
2021/04/19 09:22:08;;;;;;;5.78;2.22;;;;;;;23.22;29.08;101783.22;5045327;28;20076;-44
2021/04/19 09:25:01;;;;;;;5.82;2.60;;;;;;;23.24;28.83;101790.22;5056547;28;20025;-38
2021/04/19 09:27:48;;;;;;;4.32;2.55;;;;;;;23.25;28.37;101793.81;5046990;28;20035;-44
2021/04/19 09:30:22;;;;;;;7.82;3.03;;;;;;;23.18;27.50;101793.75;5051937;28;20045;-42
2021/04/19 09:33:08;;;;;;;5.95;2.95;;;;;;;22.92;27.24;101795.06;5061658;28;20071;-44
2021/04/19 09:35:39;;;;;;;7.55;3.20;;;;;;;22.88;27.88;101788.28;5048186;28;20644;-44
2021/04/19 09:38:16;;;;;;;6.90;2.88;;;;;;;22.88;28.52;101792.91;5051346;28;20091;-44
2021/04/19 09:40:50;;;;;;;4.85;2.40;;;;;;;22.96;28.79;101794.72;5061344;28;20392;-45
2021/04/19 09:43:41;;;;;;;5.68;2.28;;;;;;;23.04;28.62;101783.66;5049779;28;20047;-46
2021/04/19 09:46:15;;;;;;;5.63;2.45;;;;;;;23.19;28.73;101791.84;5045206;28;20482;-42
2021/04/19 09:48:52;;;;;;;5.65;2.25;;;;;;;23.27;28.51;101799.97;5057754;28;20036;-43
2021/04/19 09:51:39;;;;;;;6.70;3.30;;;;;;;23.07;27.91;101788.75;5049662;28;20071;-42
2021/04/19 09:54:11;;;;;;;10.20;3.28;;;;;;;22.73;27.13;101792.94;5052394;28;20033;-46
2021/04/19 09:56:39;;;;;;;10.10;3.17;;;;;;;22.74;28.06;101788.28;5060338;28;20396;-44
2021/04/19 09:59:06;;;;;;;8.20;2.58;;;;;;;22.73;28.05;101787.44;5031441;28;20025;-47
2021/04/19 10:01:32;;;;;;;5.50;2.80;;;;;;;22.56;27.37;101788.69;5056227;28;20444;-47
2021/04/19 10:03:59;;;;;;;5.78;2.47;;;;;;;22.57;28.78;101787.66;5055049;28;20029;-47
2021/04/19 10:06:28;;;;;;;5.68;2.72;;;;;;;22.61;28.35;101783.47;5049419;28;20497;-49
2021/04/19 10:08:56;;;;;;;6.50;2.33;;;;;;;22.66;29.07;101783.78;5060521;28;20083;-42
2021/04/19 10:11:28;;;;;;;7.05;2.95;;;;;;;22.62;27.88;101782.44;5042361;28;20577;-41
2021/04/19 10:13:55;;;;;;;6.65;2.50;;;;;;;22.64;28.59;101772.97;5040563;28;20033;-47
2021/04/19 10:16:20;;;;;;;6.35;3.08;;;;;;;22.56;27.96;101778.59;5032378;28;20453;-49
2021/04/19 10:18:53;;;;;;;5.68;2.60;;;;;;;22.60;28.48;101779.06;5044946;28;20061;-46
2021/04/19 10:21:29;;;;;;;6.03;2.35;;;;;;;22.64;28.45;101772.97;5028569;28;20029;-52
2021/04/19 10:23:56;;;;;;;6.18;2.95;;;;;;;22.64;28.30;101767.50;5041118;28;20061;-48
2021/04/19 10:26:31;;;;;;;6.93;2.70;;;;;;;22.67;28.40;101769.00;5036569;28;20029;-49
2021/04/19 10:28:57;;;;;;;4.60;2.42;;;;;;;22.69;28.42;101769.69;5047077;28;20071;-51
2021/04/19 10:31:22;;;;;;;7.38;3.55;;;;;;;22.68;27.99;101762.47;5036548;28;20029;-50
2021/04/19 10:33:52;;;;;;;8.85;3.17;;;;;;;22.69;28.38;101761.47;5040654;28;20017;-43
2021/04/19 10:36:26;;;;;;;6.82;3.15;;;;;;;22.69;28.08;101758.72;5044487;28;20375;-45
2021/04/19 10:38:59;;;;;;;6.35;2.85;;;;;;;22.60;28.16;101755.22;5033555;28;20435;-47
2021/04/19 10:41:34;;;;;;;6.47;3.17;;;;;;;22.60;29.29;101748.88;5044269;28;20187;-47
2021/04/19 10:44:00;;;;;;;4.47;2.55;;;;;;;22.66;29.48;101759.09;5041144;28;20621;-48
2021/04/19 10:46:32;;;;;;;13.73;3.58;;;;;;;22.62;28.64;101763.25;5024930;28;20509;-51
2021/04/19 10:48:59;;;;;;;;;;;;;;;22.56;28.28;101761.25;5045996;28;20082;-54
2021/04/19 10:51:27;;;;;;;6.45;3.20;;;;;;;22.44;27.96;101755.44;5036690;28;19927;-52
2021/04/19 10:53:54;;;;;;;7.00;3.28;;;;;;;22.47;28.92;101749.56;5039527;28;20521;-48
2021/04/19 10:56:21;;;;;;;6.05;2.63;;;;;;;22.52;28.85;101747.09;5043997;28;20469;-49
2021/04/19 10:58:48;;;;;;;6.13;2.95;;;;;;;22.51;28.59;101753.63;5033321;28;20061;-50
2021/04/19 11:01:13;;;;;;;5.70;3.03;;;;;;;22.49;28.21;101750.22;5044459;28;20064;-44
2021/04/19 11:03:39;;;;;;;10.13;3.17;;;;;;;22.53;28.44;101748.81;5038065;28;20476;-42
2021/04/19 11:06:09;;;;;;;4.20;2.47;;;;;;;22.52;28.71;101746.25;5037726;28;20036;-44
2021/04/19 11:09:00;;;;;;;5.50;3.03;;;;;;;22.52;28.39;101748.97;5045970;28;20024;-46
2021/04/19 11:11:30;;;;;;;4.97;2.60;;;;;;;22.47;28.05;101746.81;5019964;28;20030;-47
2021/04/19 11:14:10;;;;;;;4.95;2.88;;;;;;;22.49;28.92;101745.56;5040387;28;20445;-42
2021/04/19 11:16:36;;;;;;;4.57;2.47;;;;;;;22.43;28.31;101740.84;5021659;28;20026;-43
2021/04/19 11:19:02;;;;;;;9.00;3.03;;;;;;;22.47;28.76;101744.94;5045834;28;20120;-49
2021/04/19 11:21:32;;;;;;;4.95;2.70;;;;;;;22.54;29.46;101744.16;5034117;28;20025;-46
2021/04/19 11:24:15;;;;;;;6.55;3.05;;;;;;;22.49;28.37;101742.81;5037714;28;20071;-47
2021/04/19 11:26:42;;;;;;;8.75;3.15;;;;;;;22.47;28.32;101744.09;5044413;28;20460;-43
2021/04/19 11:29:08;;;;;;;5.65;3.05;;;;;;;22.47;29.26;101736.69;5033742;28;20024;-43
2021/04/19 11:31:49;;;;;;;6.35;2.65;;;;;;;22.54;29.37;101734.03;5041855;28;20065;-46
2021/04/19 11:34:16;;;;;;;5.10;2.35;;;;;;;22.59;29.72;101725.22;5042629;28;20028;-45
2021/04/19 11:36:46;;;;;;;4.53;2.67;;;;;;;22.59;29.30;101722.50;5032687;28;20111;-47
2021/04/19 11:39:20;;;;;;;6.40;3.28;;;;;;;22.60;29.90;101724.22;5043298;28;20029;-44
2021/04/19 11:41:47;;;;;;;3.45;2.42;;;;;;;22.61;29.87;101721.25;5037909;28;20525;-44
2021/04/19 11:44:13;;;;;;;7.95;2.75;;;;;;;22.63;30.06;101716.44;5036133;28;20034;-44
2021/04/19 11:46:40;;;;;;;7.90;2.67;;;;;;;22.63;30.21;101716.44;5022340;28;20382;-43
2021/04/19 11:49:08;;;;;;;6.60;2.35;;;;;;;22.65;30.09;101713.50;5016236;28;20162;-47
2021/04/19 11:51:34;;;;;;;5.68;2.58;;;;;;;22.64;30.23;101707.16;5041167;28;20029;-44
2021/04/19 11:53:59;;;;;;;4.07;2.60;;;;;;;22.65;30.22;101711.63;5040084;28;20033;-45
2021/04/19 11:56:24;;;;;;;6.18;2.50;;;;;;;22.67;30.49;101705.94;5034389;28;20025;-41
2021/04/19 11:58:50;;;;;;;3.75;2.45;;;;;;;22.64;30.35;101696.19;5045255;28;20025;-46
2021/04/19 12:01:20;;;;;;;5.60;2.97;;;;;;;22.64;30.27;101706.31;5033657;28;20041;-48
2021/04/19 12:03:48;;;;;;;5.85;3.00;;;;;;;22.65;30.22;101708.91;5039174;28;20025;-49
2021/04/19 12:06:13;;;;;;;5.53;2.30;;;;;;;22.66;30.15;101704.25;5041335;28;20160;-47
2021/04/19 12:08:41;;;;;;;4.05;2.50;;;;;;;22.67;30.04;101705.94;5032480;28;20120;-53
2021/04/19 12:11:07;;;;;;;7.38;2.80;;;;;;;22.67;29.44;101709.53;5045026;28;20017;-43
2021/04/19 12:13:32;;;;;;;5.07;2.40;;;;;;;22.67;29.92;101705.94;5041224;28;20032;-42
2021/04/19 12:15:58;;;;;;;5.20;2.58;;;;;;;22.66;30.02;101705.09;5026956;28;20034;-47
2021/04/19 12:18:23;;;;;;;4.88;2.72;;;;;;;22.68;29.75;101700.28;5037450;28;20037;-46
2021/04/19 12:20:50;;;;;;;7.32;2.80;;;;;;;22.69;29.98;101701.97;5027657;28;20488;-46
2021/04/19 12:23:16;;;;;;;4.80;2.55;;;;;;;22.70;29.87;101691.84;5033427;28;20024;-46
2021/04/19 12:25:42;;;;;;;4.70;2.55;;;;;;;22.72;29.78;101700.75;5039452;28;20492;-43
2021/04/19 12:28:07;;;;;;;4.82;2.50;;;;;;;22.73;29.83;101694.19;5040575;28;20033;-44
2021/04/19 12:30:34;;;;;;;6.38;2.80;;;;;;;22.74;29.53;101695.06;5031009;28;20041;-41
2021/04/19 12:32:59;;;;;;;5.93;3.10;;;;;;;22.74;29.60;101692.31;5044532;28;20481;-40
2021/04/19 12:35:25;;;;;;;4.82;2.60;;;;;;;22.73;29.73;101688.72;5034108;28;20104;-45
2021/04/19 12:37:51;;;;;;;6.57;2.72;;;;;;;22.75;29.79;101691.28;5037755;28;20110;-43
2021/04/19 12:40:17;;;;;;;5.32;2.42;;;;;;;22.77;29.70;101683.69;5041421;28;20110;-45
2021/04/19 12:42:43;;;;;;;5.60;2.85;;;;;;;22.79;29.56;101692.59;5031473;28;20136;-46
2021/04/19 12:45:08;;;;;;;4.13;2.75;;;;;;;22.77;29.09;101686.44;5044110;28;20111;-45
2021/04/19 12:47:35;;;;;;;4.53;2.70;;;;;;;22.76;28.76;101682.84;5023575;28;20381;-48
2021/04/19 12:50:00;;;;;;;5.35;2.58;;;;;;;22.79;28.68;101698.91;5036622;28;20039;-43
2021/04/19 12:52:26;;;;;;;7.68;3.45;;;;;;;22.79;28.65;101679.72;5042733;28;20494;-46
2021/04/19 12:54:52;;;;;;;4.85;2.60;;;;;;;22.83;28.33;101686.50;5031434;28;20041;-54
2021/04/19 12:57:17;;;;;;;4.38;2.92;;;;;;;22.84;28.22;101681.91;5042474;28;20029;-45
2021/04/19 12:59:42;;;;;;;5.53;2.97;;;;;;;22.85;28.38;101680.84;5036607;28;20036;-44
2021/04/19 13:02:08;;;;;;;6.85;2.50;;;;;;;22.88;28.33;101677.72;5035426;28;20069;-45
2021/04/19 13:04:33;;;;;;;5.68;3.22;;;;;;;22.87;27.75;101679.63;5036489;28;20119;-46
2021/04/19 13:06:58;;;;;;;3.88;2.45;;;;;;;22.86;27.59;101674.31;5029037;28;20037;-44
2021/04/19 13:09:23;;;;;;;4.88;2.38;;;;;;;22.88;27.70;101673.06;5041934;28;20028;-43
2021/04/19 13:11:49;;;;;;;6.18;2.42;;;;;;;22.86;27.51;101668.81;5027598;28;20041;-44
2021/04/19 13:14:14;;;;;;;5.85;2.83;;;;;;;22.87;27.44;101665.91;5041493;28;20098;-44
2021/04/19 13:16:39;;;;;;;8.18;2.83;;;;;;;22.81;27.27;101663.94;5027731;28;20470;-41
2021/04/19 13:19:05;;;;;;;8.20;3.35;;;;;;;22.83;27.61;101667.31;5044320;28;20025;-45
2021/04/19 13:21:30;;;;;;;11.18;3.33;;;;;;;22.86;27.82;101669.66;5025824;28;20079;-47
2021/04/19 13:23:56;;;;;;;6.72;2.53;;;;;;;22.83;27.59;101661.81;5038439;28;20025;-49
2021/04/19 13:26:22;;;;;;;7.32;3.22;;;;;;;22.76;27.23;101673.78;5031590;28;20074;-46
2021/04/19 13:28:48;;;;;;;5.72;3.30;;;;;;;22.67;26.74;101664.81;5044521;28;20078;-48
2021/04/19 13:31:13;;;;;;;8.30;3.45;;;;;;;22.65;26.91;101656.78;5032774;28;20139;-48
2021/04/19 13:33:39;;;;;;;6.72;2.67;;;;;;;22.69;27.10;101663.59;5039747;28;20393;-45
2021/04/19 13:36:04;;;;;;;7.13;2.60;;;;;;;22.69;27.00;101665.47;5036344;28;20401;-44
2021/04/19 13:38:29;;;;;;;3.95;2.53;;;;;;;22.66;27.06;101657.63;5027771;28;20482;-45
2021/04/19 13:40:55;;;;;;;8.07;3.10;;;;;;;22.65;27.22;101661.41;5042459;28;20029;-43
2021/04/19 13:43:21;;;;;;;7.25;2.65;;;;;;;22.68;27.32;101655.53;5033625;28;20036;-46
2021/04/19 13:45:46;;;;;;;5.28;2.70;;;;;;;22.71;27.21;101649.66;5033502;28;20445;-54
2021/04/19 13:48:11;;;;;;;8.10;2.60;;;;;;;22.75;27.65;101644.66;5033100;28;20041;-46
2021/04/19 13:50:37;;;;;;;3.70;2.33;;;;;;;22.77;27.59;101639.81;5031341;28;20428;-48
2021/04/19 13:53:03;;;;;;;5.15;2.60;;;;;;;22.77;27.46;101646.16;5048047;28;20048;-49
2021/04/19 13:55:28;;;;;;;5.50;2.80;;;;;;;22.79;27.51;101648.72;5038429;28;20036;-48
2021/04/19 13:57:54;;;;;;;6.15;2.55;;;;;;;22.77;27.63;101640.66;5040654;28;20382;-47
2021/04/19 14:00:20;;;;;;;6.43;2.83;;;;;;;22.80;27.81;101642.16;5042778;28;20048;-47
2021/04/19 14:02:46;;;;;;;4.18;2.90;;;;;;;22.81;27.76;101639.25;5034495;28;20033;-47
2021/04/19 14:05:12;;;;;;;7.75;3.45;;;;;;;22.83;27.97;101648.09;5046729;28;20021;-46
2021/04/19 14:07:39;;;;;;;5.95;2.58;;;;;;;22.83;27.79;101639.88;5038278;28;20048;-45
2021/04/19 14:10:07;;;;;;;4.88;2.47;;;;;;;22.81;27.68;101639.25;5039324;28;20109;-46
2021/04/19 14:12:34;;;;;;;4.78;2.75;;;;;;;22.81;27.88;101631.03;5031030;28;20037;-45
2021/04/19 14:14:59;;;;;;;6.07;2.30;;;;;;;22.81;28.69;101636.50;5047802;28;20041;-46
2021/04/19 14:17:25;;;;;;;6.60;2.70;;;;;;;22.84;29.25;101641.59;5025574;28;20025;-51
2021/04/19 14:19:50;;;;;;;5.88;2.00;;;;;;;22.86;28.79;101631.25;5039705;28;20036;-46
2021/04/19 14:22:16;;;;;;;5.53;2.50;;;;;;;22.86;29.01;101631.25;5044142;28;20502;-49
2021/04/19 14:24:41;;;;;;;3.35;2.10;;;;;;;22.88;28.73;101631.94;5034313;28;20033;-51
2021/04/19 14:27:07;;;;;;;5.60;2.53;;;;;;;22.90;28.10;101631.75;5045845;28;20017;-48
2021/04/19 14:29:34;;;;;;;4.88;2.60;;;;;;;22.84;27.45;101627.03;5043202;28;20067;-52
2021/04/19 14:31:59;;;;;;;7.07;2.63;;;;;;;22.82;27.30;101635.44;5041307;28;20029;-48
2021/04/19 14:34:28;;;;;;;4.68;2.38;;;;;;;22.77;26.91;101626.94;5035914;28;20083;-48
2021/04/19 14:36:54;;;;;;;6.07;2.30;;;;;;;22.71;26.65;101625.84;5046640;28;20025;-48
2021/04/19 14:39:19;;;;;;;8.63;2.70;;;;;;;22.65;26.39;101628.50;5036399;28;20523;-48
2021/04/19 14:41:44;;;;;;;8.13;3.08;;;;;;;22.56;26.45;101629.66;5041301;28;20043;-49
2021/04/19 14:44:10;;;;;;;13.00;2.67;;;;;;;22.51;26.26;101629.41;5033118;28;20389;-46
2021/04/19 14:46:35;;;;;;;4.40;2.58;;;;;;;22.52;26.66;101626.47;5020384;28;20477;-44
2021/04/19 14:49:01;;;;;;;4.18;2.22;;;;;;;22.55;27.22;101626.06;5046251;28;20017;-45
2021/04/19 14:51:27;;;;;;;4.78;2.22;;;;;;;22.61;27.75;101617.06;5036799;28;20032;-43
2021/04/19 14:53:52;;;;;;;7.13;1.80;;;;;;;22.67;28.07;101627.28;5039787;28;20033;-42
2021/04/19 14:56:18;;;;;;;3.42;1.90;;;;;;;22.72;28.26;101629.44;5043801;28;20029;-44
2021/04/19 14:58:43;;;;;;;3.40;2.00;;;;;;;22.74;28.16;101624.59;5028554;28;20490;-40
2021/04/19 15:01:09;;;;;;;3.53;1.83;;;;;;;22.75;28.09;101615.34;5040815;28;20512;-40
2021/04/19 15:03:34;;;;;;;3.22;1.92;;;;;;;22.76;28.11;101622.50;5042264;28;20025;-40
2021/04/19 15:05:59;;;;;;;3.15;2.00;;;;;;;22.78;28.18;101619.59;5041375;28;20104;-40
2021/04/19 15:08:25;;;;;;;2.80;1.77;;;;;;;22.79;28.43;101621.28;5034398;28;20105;-41
2021/04/19 15:10:50;;;;;;;5.15;1.90;;;;;;;22.79;28.56;101627.63;5044160;28;20033;-41
2021/04/19 15:13:16;;;;;;;2.22;1.73;;;;;;;22.80;28.83;101618.31;5036826;28;20367;-41
2021/04/19 15:15:42;;;;;;;3.83;2.30;;;;;;;22.81;29.20;101619.22;5030092;28;20024;-39
2021/04/19 15:18:07;;;;;;;3.45;1.95;;;;;;;22.82;29.46;101620.88;5035687;28;20029;-39
2021/04/19 15:20:33;;;;;;;4.82;1.77;;;;;;;22.82;28.96;101624.47;5034706;28;20037;-38
2021/04/19 15:22:59;;;;;;;3.58;1.85;;;;;;;22.84;29.15;101624.31;5048115;28;20037;-38
2021/04/19 15:25:25;;;;;;;3.05;1.42;;;;;;;22.88;29.39;101628.34;5036013;28;20033;-39
2021/04/19 15:27:51;;;;;;;3.83;1.67;;;;;;;22.89;29.56;101628.13;5039520;28;20030;-39
2021/04/19 15:30:20;;;;;;;3.05;1.60;;;;;;;22.92;29.52;101616.75;5043278;28;20037;-39
2021/04/19 15:32:46;;;;;;;2.63;1.58;;;;;;;22.92;29.53;101616.75;5033222;28;20029;-42
2021/04/19 15:36:03;;;;;;;6.97;1.80;;;;;;;-145.71;100.00;60690.53;5076874;28;20393;-53
2021/04/19 15:38:29;;;;;;;4.55;2.08;;;;;;;-145.71;100.00;60690.53;5070017;28;20043;-49
2021/04/19 15:40:54;;;;;;;5.28;1.80;;;;;;;22.48;31.51;101619.69;5082372;28;20028;-49
2021/04/19 15:43:20;;;;;;;4.05;2.00;;;;;;;22.51;35.37;101619.28;5071122;28;20025;-46
2021/04/19 17:20:46;;;;;;;10.93;5.10;;;;;;;19.46;32.50;101661.75;5438541;22;20087;-86
2021/04/19 17:35:58;;;;;;;17.13;5.18;;;;;;;17.60;33.47;101659.09;5044747;28;20060;-86
2021/04/19 17:38:24;;;;;;;12.60;5.28;;;;;;;17.38;34.41;101657.69;5013245;28;20030;-86
2021/04/19 17:40:51;;;;;;;14.02;5.07;;;;;;;17.16;34.68;101650.91;5006662;28;20030;-86
2021/04/19 17:43:16;;;;;;;11.10;4.70;;;;;;;17.04;35.94;101660.31;5021359;28;20032;-85
2021/04/19 17:45:42;;;;;;;10.40;5.68;;;;;;;16.67;35.97;101655.81;5009954;28;20029;-86
2021/04/19 17:48:07;;;;;;;11.10;5.40;;;;;;;16.29;37.09;101649.63;5025345;28;20466;-86
2021/04/19 17:50:33;;;;;;;10.50;6.05;;;;;;;16.30;37.85;101655.91;5037568;28;20033;-86
2021/04/19 17:52:58;;;;;;;9.75;5.32;;;;;;;16.21;37.18;101649.53;5023273;28;20042;-86
2021/04/19 17:55:24;;;;;;;8.00;4.47;;;;;;;16.05;37.48;101650.16;5011293;28;20389;-85
2021/04/19 17:57:51;;;;;;;8.35;5.10;;;;;;;15.97;37.52;101650.03;5014589;28;20066;-85
2021/04/19 18:00:17;;;;;;;10.15;5.38;;;;;;;15.93;37.68;101653.22;5019390;28;20564;-86
2021/04/19 18:02:43;;;;;;;13.48;5.50;;;;;;;15.81;37.71;101650.69;5008279;28;20040;-86
2021/04/19 18:05:11;;;;;;;11.38;4.85;;;;;;;15.72;37.93;101650.72;5020407;28;20022;-85
2021/04/19 18:07:37;;;;;;;10.82;5.25;;;;;;;15.39;39.48;101642.88;5013055;28;20474;-86
2021/04/19 18:10:04;;;;;;;9.38;4.82;;;;;;;15.28;39.02;101647.63;5013721;28;20046;-85
2021/04/19 18:12:29;;;;;;;13.05;5.70;;;;;;;15.26;39.06;101641.50;5007779;28;20034;-85
2021/04/19 18:14:54;;;;;;;5.88;4.50;;;;;;;15.17;39.14;101644.06;5009152;28;20037;-85
2021/04/19 18:17:20;;;;;;;10.10;5.72;;;;;;;15.09;39.21;101646.66;5013873;28;20052;-85
2021/04/19 18:19:45;;;;;;;10.70;7.00;;;;;;;14.91;39.54;101642.94;5023990;28;20026;-85
2021/04/19 18:22:11;;;;;;;17.52;5.82;;;;;;;14.82;40.06;101641.09;5012426;28;20850;-85
2021/04/19 18:24:36;;;;;;;11.02;5.90;;;;;;;14.65;40.53;101646.19;5013745;28;20022;-85
2021/04/19 18:27:01;;;;;;;10.23;6.15;;;;;;;14.54;40.55;101634.59;4995216;28;20029;-85
2021/04/19 18:29:27;;;;;;;9.30;6.32;;;;;;;14.34;41.10;101639.97;5038833;22;20073;-85
2021/04/19 18:49:48;;;;;;;10.57;6.50;;;;;;;13.17;44.42;101646.59;5015907;28;20063;-83
2021/04/19 18:52:15;;;;;;;11.73;6.40;;;;;;;13.04;44.69;101649.47;5015897;28;20097;-83
2021/04/19 18:54:44;;;;;;;13.27;7.47;;;;;;;12.97;44.86;101653.66;5016231;28;20053;-83
2021/04/19 18:57:14;;;;;;;13.18;6.47;;;;;;;12.87;44.64;101650.03;4998291;28;20482;-83
2021/04/19 18:59:51;;;;;;;12.20;7.25;;;;;;;12.73;45.34;101648.47;5018135;28;20037;-83
2021/04/19 19:02:18;;;;;;;13.77;8.52;;;;;;;12.56;45.54;101657.97;5004963;28;20056;-83
2021/04/19 19:04:44;;;;;;;17.20;9.23;;;;;;;12.49;46.18;101661.28;4999522;28;20506;-82
2021/04/19 19:07:09;;;;;;;11.85;7.68;;;;;;;12.35;45.54;101665.97;4998737;28;20061;-83
2021/04/19 19:09:35;;;;;;;12.18;7.05;;;;;;;12.31;46.63;101660.97;4996817;28;20047;-83
2021/04/19 19:12:00;;;;;;;11.65;8.15;;;;;;;12.26;46.46;101668.56;4998044;28;20038;-83
2021/04/19 19:14:25;;;;;;;18.73;7.75;;;;;;;12.14;46.15;101673.09;4997383;28;20056;-83
2021/04/19 19:16:51;;;;;;;13.63;7.80;;;;;;;12.11;47.56;101667.94;4997305;28;20034;-83
2021/04/19 19:19:16;;;;;;;12.85;7.55;;;;;;;11.92;46.95;101672.13;4995289;28;20137;-83
2021/04/19 19:21:42;;;;;;;13.45;8.35;;;;;;;11.82;47.01;101673.81;4994407;28;20022;-84
2021/04/19 19:24:09;;;;;;;14.32;7.90;;;;;;;11.71;47.80;101673.78;4996152;28;20030;-84
2021/04/19 19:26:34;;;;;;;12.18;7.32;;;;;;;11.61;47.94;101670.09;4997332;28;20065;-83
2021/04/19 19:29:00;;;;;;;19.10;8.13;;;;;;;11.57;47.86;101682.97;4994243;28;20573;-83
2021/04/19 19:31:25;;;;;;;16.00;7.43;;;;;;;11.45;48.31;101675.81;4993507;28;20026;-84
2021/04/19 19:33:50;;;;;;;17.42;8.57;;;;;;;11.34;48.90;101678.47;5000026;28;20544;-83
2021/04/19 19:36:16;;;;;;;29.52;12.02;;;;;;;11.23;49.16;101673.91;4995297;28;20026;-83
2021/04/19 19:38:42;;;;;;;36.38;14.55;;;;;;;11.11;49.59;101669.44;4997376;28;20105;-83
2021/04/19 19:41:07;;;;;;;32.65;12.93;;;;;;;11.02;49.87;101669.19;4995409;28;20058;-83
2021/04/19 19:43:33;;;;;;;30.90;11.95;;;;;;;10.93;49.81;101669.88;4994085;28;20387;-83
2021/04/19 19:46:00;;;;;;;28.92;10.38;;;;;;;10.88;49.65;101671.19;4992916;28;20521;-83
2021/04/19 19:48:25;;;;;;;35.28;9.88;;;;;;;10.89;50.62;101663.00;4993301;28;20030;-83
2021/04/19 19:50:51;;;;;;;32.58;11.30;;;;;;;10.81;50.21;101665.41;4992294;28;20120;-83
2021/04/19 19:53:18;;;;;;;25.67;11.23;;;;;;;10.76;50.51;101665.75;4994002;28;20521;-83
2021/04/19 19:55:44;;;;;;;25.13;10.43;;;;;;;10.72;51.26;101676.88;4993002;28;20027;-82
2021/04/19 19:58:10;;;;;;;25.92;10.68;;;;;;;10.66;50.72;101658.50;4998152;28;20031;-82
2021/04/19 20:00:36;;;;;;;28.00;11.25;;;;;;;10.56;51.08;101661.00;4995045;28;20511;-82
2021/04/19 20:03:02;;;;;;;23.10;11.10;;;;;;;10.51;51.13;101664.03;4995789;28;20041;-83
2021/04/19 20:05:28;;;;;;;29.60;11.57;;;;;;;10.46;50.99;101662.63;4995005;28;20026;-82
2021/04/19 20:07:55;;;;;;;24.38;10.88;;;;;;;10.45;50.87;101666.31;4993821;28;20030;-82
2021/04/19 20:10:20;;;;;;;24.17;10.98;;;;;;;10.38;52.42;101671.28;4992060;28;20508;-82
2021/04/19 20:12:46;;;;;;;21.48;9.18;;;;;;;10.33;51.76;101666.22;4995003;28;20034;-82
2021/04/19 20:15:13;;;;;;;21.92;9.73;;;;;;;10.26;51.70;101664.97;4994555;28;20022;-82
2021/04/19 20:17:39;;;;;;;18.25;8.80;;;;;;;10.24;52.17;101669.53;4994137;28;20042;-82
2021/04/19 20:20:05;;;;;;;19.17;9.45;;;;;;;10.15;52.39;101672.88;4994651;28;20026;-82
2021/04/19 20:22:31;;;;;;;21.35;8.90;;;;;;;10.11;53.26;101674.94;4996874;28;20470;-83
2021/04/19 20:24:56;;;;;;;16.05;8.32;;;;;;;10.03;52.85;101673.78;4996028;28;20044;-83
2021/04/19 20:27:21;;;;;;;13.70;7.93;;;;;;;9.99;52.97;101666.91;4996243;28;20038;-82
2021/04/19 20:29:47;;;;;;;16.77;7.80;;;;;;;9.98;52.83;101666.06;4995027;28;20498;-82
2021/04/19 20:32:12;;;;;;;13.32;6.07;;;;;;;9.88;52.56;101664.97;4996210;28;20113;-83
2021/04/19 20:34:38;;;;;;;15.55;7.00;;;;;;;9.93;52.18;101667.34;4993793;28;20029;-83
2021/04/19 20:37:03;;;;;;;13.32;5.35;;;;;;;9.96;51.79;101665.28;4995199;28;20105;-84
2021/04/19 20:39:28;;;;;;;11.77;5.43;;;;;;;10.00;51.79;101671.31;4994911;28;20039;-83
2021/04/19 20:41:54;;;;;;;11.20;5.25;;;;;;;10.04;51.10;101662.03;4993353;28;20040;-83
2021/04/19 20:44:19;;;;;;;12.85;5.63;;;;;;;10.05;51.47;101658.41;4995406;28;20030;-83
2021/04/19 20:46:46;;;;;;;12.88;5.75;;;;;;;10.08;50.96;101656.34;4994899;28;20487;-83
2021/04/19 20:49:12;;;;;;;11.15;5.43;;;;;;;10.05;50.42;101658.41;4994770;28;20030;-83
2021/04/19 20:51:38;;;;;;;13.55;5.28;;;;;;;10.04;51.06;101668.31;4996596;28;20034;-83
2021/04/19 20:54:10;;;;;;;7.05;5.15;;;;;;;10.03;50.65;101653.13;4995324;28;20480;-83
2021/04/19 20:56:36;;;;;;;;;;;;;;;9.99;50.46;101653.47;4995500;28;20034;-83
2021/04/19 20:59:01;;;;;;;11.38;5.03;;;;;;;10.00;50.75;101656.03;4996525;28;19921;-83
2021/04/19 21:01:27;;;;;;;20.00;5.80;;;;;;;9.99;51.02;101665.06;4996305;28;20032;-84
2021/04/19 21:03:53;;;;;;;12.07;4.45;;;;;;;9.99;50.33;101666.91;4998526;28;20113;-83
2021/04/19 21:06:18;;;;;;;12.10;4.93;;;;;;;9.91;51.04;101662.06;4994500;28;20022;-83
2021/04/19 21:08:44;;;;;;;7.65;4.75;;;;;;;9.89;51.27;101661.34;4994951;28;20037;-83
2021/04/19 21:11:10;;;;;;;14.23;5.05;;;;;;;9.74;52.07;101665.94;4993240;28;20031;-83
2021/04/19 21:13:35;;;;;;;9.20;4.85;;;;;;;9.70;51.72;101655.50;4990308;28;20030;-83
2021/04/19 21:16:00;;;;;;;10.77;4.70;;;;;;;9.63;51.82;101661.31;4990117;28;20168;-83
2021/04/19 21:18:26;;;;;;;10.13;4.68;;;;;;;9.61;51.97;101655.22;4994306;28;20093;-83
2021/04/19 21:20:51;;;;;;;8.77;4.80;;;;;;;9.54;52.95;101661.97;4992444;28;20056;-83
2021/04/19 21:23:17;;;;;;;12.80;4.63;;;;;;;9.47;53.09;101663.34;4994937;28;20116;-83
2021/04/19 21:25:45;;;;;;;11.35;4.57;;;;;;;9.41;53.00;101655.72;4993884;28;20033;-84
2021/04/19 21:28:10;;;;;;;12.52;5.28;;;;;;;9.36;53.60;101660.53;4996793;28;20026;-83
2021/04/19 21:30:36;;;;;;;15.07;4.95;;;;;;;9.34;53.31;101652.59;4995699;28;20388;-83
2021/04/19 21:33:01;;;;;;;14.60;4.78;;;;;;;9.29;53.33;101653.88;4991636;28;20117;-83
2021/04/19 21:35:26;;;;;;;7.95;4.82;;;;;;;9.23;53.34;101659.69;4991939;28;20031;-83
2021/04/19 21:37:51;;;;;;;7.72;4.53;;;;;;;9.16;54.08;101660.09;4990485;28;20036;-84
2021/04/19 21:40:17;;;;;;;10.48;5.05;;;;;;;9.14;54.15;101656.63;4992189;28;20128;-84
2021/04/19 21:42:42;;;;;;;17.25;6.13;;;;;;;9.06;53.65;101664.38;4990694;28;20034;-84
2021/04/19 21:45:08;;;;;;;6.97;5.03;;;;;;;9.05;53.63;101656.41;4992908;28;20030;-84
2021/04/19 21:47:35;;;;;;;8.55;4.90;;;;;;;8.95;54.43;101662.38;4992643;28;20038;-84
2021/04/19 21:50:00;;;;;;;12.63;4.78;;;;;;;8.88;54.87;101649.50;4996655;28;20037;-84
2021/04/19 21:52:26;;;;;;;15.90;5.78;;;;;;;8.81;54.99;101646.34;4991598;28;20135;-84
2021/04/19 21:54:51;;;;;;;12.90;5.40;;;;;;;8.72;55.33;101650.53;4991840;28;20034;-83
2021/04/19 21:57:16;;;;;;;10.45;5.53;;;;;;;8.68;55.47;101662.41;4991731;28;20037;-83
2021/04/19 21:59:42;;;;;;;11.35;5.80;;;;;;;8.59;56.02;101651.41;4993649;28;20023;-83
2021/04/19 22:02:07;;;;;;;10.57;5.40;;;;;;;8.50;56.07;101652.88;4995584;28;20034;-83
2021/04/19 22:04:33;;;;;;;10.50;5.60;;;;;;;8.44;55.43;101656.81;4994787;28;20037;-84
2021/04/19 22:06:58;;;;;;;9.45;5.13;;;;;;;8.41;56.28;101654.31;4994052;28;20033;-84
2021/04/19 22:09:23;;;;;;;12.05;5.78;;;;;;;8.37;56.50;101652.78;4994545;28;20155;-84
2021/04/19 22:11:49;;;;;;;12.07;5.70;;;;;;;8.31;56.22;101655.00;4993564;28;20033;-84
2021/04/19 22:14:14;;;;;;;8.13;5.25;;;;;;;8.24;56.89;101652.72;5004315;28;20053;-84
2021/04/19 22:16:39;;;;;;;12.20;5.53;;;;;;;8.21;56.06;101649.38;4997894;28;20026;-84
2021/04/19 22:19:08;;;;;;;12.65;6.07;;;;;;;8.24;55.55;101647.38;4998833;28;20454;-84
2021/04/19 22:21:39;;;;;;;13.35;5.95;;;;;;;8.28;55.15;101645.34;4998218;28;20425;-83
2021/04/19 22:24:06;;;;;;;8.83;5.97;;;;;;;8.31;54.71;101638.94;4998358;28;20486;-84
2021/04/19 22:26:32;;;;;;;12.85;5.95;;;;;;;8.34;54.42;101634.22;4996287;28;20050;-84
2021/04/19 22:28:57;;;;;;;13.10;5.72;;;;;;;8.40;54.53;101641.03;4996687;28;20069;-83
2021/04/19 22:31:23;;;;;;;9.00;5.22;;;;;;;8.41;54.59;101640.94;4995496;28;20061;-83